createdAt,value
2022-08-05T01:13:22.386Z,23.30
2022-08-05T01:15:58.652Z,22.10
2022-08-05T01:18:29.778Z,21.10
2022-08-05T01:21:06.538Z,20.80
2022-08-05T01:23:58.034Z,20.70
2022-08-05T01:26:31.145Z,20.50
2022-08-05T05:12:11.850Z,20.50
2022-08-05T05:17:22.860Z,20.00
2022-08-05T05:19:52.736Z,20.00
2022-08-05T05:22:24.101Z,20.00
2022-08-05T05:27:41.339Z,20.00
2022-08-05T05:30:15.331Z,19.90
2022-08-05T05:32:42.540Z,20.00
2022-08-05T05:35:09.595Z,20.00
2022-08-05T05:37:59.381Z,19.90
2022-08-05T05:40:27.732Z,20.00
2022-08-05T05:42:54.822Z,20.20
2022-08-05T05:45:23.074Z,20.20
2022-08-05T05:48:07.935Z,20.40
2022-08-05T05:50:44.114Z,20.50
2022-08-05T05:53:21.318Z,20.50
2022-08-05T05:55:51.872Z,20.60
2022-08-05T05:58:31.803Z,20.80
2022-08-05T06:08:57.361Z,20.70
2022-08-05T20:57:43.319Z,21.20
2022-08-05T22:31:05.851Z,17.20
2022-08-05T22:33:55.370Z,16.20
2022-08-05T22:36:19.507Z,15.90
2022-08-05T22:38:51.015Z,15.80
2022-08-05T22:42:05.364Z,15.70
2022-08-05T23:32:57.766Z,15.60
2022-08-05T23:35:28.421Z,15.00
2022-08-05T23:38:00.910Z,14.90
2022-08-05T23:40:27.581Z,14.90
2022-08-05T23:42:54.323Z,14.90
2022-08-05T23:45:21.115Z,14.80
2022-08-05T23:47:53.638Z,14.80
2022-08-05T23:50:20.566Z,14.90
2022-08-05T23:52:50.540Z,14.80
2022-08-05T23:55:17.890Z,14.80
